Joseph Dufour

Recruteur - Stade Brestois
3 Déc 2028
Dimanche
Processus

Personnalité

Adaptabilité (18) Ambition (19) Controverse (18) Loyauté (14) Pression (10) Professionnalisme (20) Sportivité (13) Tempérament (18)

Profil

Style d'entraînement Démocratique
Diplôme Continental B
Détermination 8
Gestion des joueurs 8
Motivation 5
Discipline 9
Satisfaction professionnelle
100%
Fatigue
0%
Rôle Recruteur
Salaire 65.7K p/s
Contrat 14.03.2030

Performance

Comportement Bon
Efficacité de l'entraînement
38%
Développement des joueurs
30%
Prévention des blessures
65%
Mise en place tactique
55%

Événements récents

A participé à une réunion de recrutement maintenant
A évalué un joueur maintenant
A évalué un joueur 7j
A évalué un joueur 7j
A évalué un joueur 7j
A évalué un joueur 7j
A évalué un joueur 7j
A évalué un joueur 7j

Suivi en cours

143
Joueur Club Statut Capacité Confiance Observé Dernière observation Dernier vote
Mathieu Patouillet RC Strasbourg Actif 142 / 140 40% 3 02.12.2028 -
Noah Jauny Sochaux Actif 121 / 115 40% 7 02.12.2028 -
Biola Sabitu Remo Stars Actif 109 / 115 40% 3 02.12.2028 -
Joe Whitworth Wigan Athletic Actif 131 / 125 40% 5 01.12.2028 -
Andrew Rick Philadelphia Union Actif 120 / 116 40% 5 01.12.2028 -
Enis Ujkaj Pescara Actif 130 / 139 40% 5 01.12.2028 -
Itumeleng Grobler Free State Stars Actif 117 / 114 40% 3 29.11.2028 -
Jack Wint Sibenik Actif 100 / 110 40% 4 29.11.2028 -
Robin Risser Monaco Actif 157 / 158 40% 4 26.11.2028 -
Juan Pablo Rial San Telmo Actif 110 / 113 40% 1 26.11.2028 -
Lautaro Herrera Estudiantes Actif 110 / 105 40% 5 25.11.2028 -
Muhammadyusuf Sobirov Bunyodkor Actif 110 / 123 40% 4 25.11.2028 -
Sam Proctor Salford City Actif 128 / 135 40% 3 25.11.2028 -
Antonio Carrera Falkenberg Actif 107 / 105 40% 2 24.11.2028 -
Mikheil Makatsaria Torpedo Kutaisi Actif 115 / 121 40% 4 24.11.2028 -
Stephen McMullan Fleetwood Town Actif 110 / 119 40% 2 24.11.2028 -
Osnel García Trujillanos Actif 99 / 102 40% 2 23.11.2028 -
Mike Penders Cardiff City Actif 152 / 152 40% 7 19.11.2028 -
James Beadle Hull City Actif 150 / 146 40% 4 18.11.2028 -
Luke Faxon Sheffield United Actif 119 / 120 40% 2 17.11.2028 -
Xavier Valdez Chicago Fire Actif 118 / 116 40% 6 15.11.2028 -
Dylan Moody Cheltenham Town Actif 121 / 134 40% 1 15.11.2028 -
Jasper Torkildsen IK Start Actif 120 / 120 40% 3 13.11.2028 -
Alexei Rojas Fedorushchenko Barrow AFC Actif 128 / 131 40% 4 13.11.2028 -
Olivier Leroux Mouscron Actif 108 / 113 40% 5 09.11.2028 -
Sebastian Rodriguez Houston Dynamo Actif 125 / 120 40% 3 09.11.2028 -
Trey Nyoni Rotherham United Actif 149 / 152 40% 1 09.11.2028 -
Joel Ezra Enyimba Actif 96 / 101 40% 2 08.11.2028 -
Ryan McAidoo Oldham Athletic Actif 128 / 138 40% 1 08.11.2028 -
Álvaro Montoro Botafogo Actif 144 / 136 40% 6 06.11.2028 -
Matías Arias Vélez Actif 121 / 115 40% 2 06.11.2028 -
Nicholas Michalski Northampton Town Actif 118 / 119 40% 1 05.11.2028 -
Ifeanyi Emmanuel Niger Tornadoes Actif 110 / 113 40% 3 30.10.2028 -
Guillaume Restes Toulouse FC Actif 153 / 155 40% 2 26.10.2028 -
Máximo Núñez Los Andes Actif 104 / 114 40% 3 25.10.2028 -
Kauã Criciuma Actif 122 / 129 40% 1 25.10.2028 -
Estêvão Portsmouth Actif 151 / 153 40% 3 23.10.2028 -
Ayyoub Bouaddi Stoke City Actif 156 / 159 40% 2 23.10.2028 -
Rio Ngumoha Plymouth Argyle Actif 146 / 154 40% 1 23.10.2028 -
Cheveyo Tsawa Club Brugge Actif 131 / 135 40% 3 22.10.2028 -
Harry Gray Harrogate Town Actif 127 / 134 40% 4 22.10.2028 -
Peyton Miller New England Revolution Actif 106 / 128 40% 3 21.10.2028 -
Dro Monaco Actif 142 / 144 40% 3 21.10.2028 -
Nazareno Durán Huracán Actif 122 / 127 40% 3 21.10.2028 -
Tahiel Peralta Racing Club Actif 106 / 115 40% 3 20.10.2028 -
Mateo Aguiar Tigre Actif 106 / 120 40% 2 20.10.2028 -
Julian Hall Real Salt Lake Actif 115 / 113 40% 4 19.10.2028 -
Alex Verón Vélez Actif 114 / 123 40% 4 17.10.2028 -
Romelle Donovan Brentford Actif 131 / 139 40% 1 17.10.2028 -
Valentino Huertas Morón Actif 96 / 108 40% 3 16.10.2028 -
Santiago Segovia Rosario Central Actif 109 / 113 40% 4 16.10.2028 -
Agustín Olavarría Colon Actif 95 / 104 40% 1 16.10.2028 -
Lisandro Piñero Banfield Actif 132 / 127 40% 1 16.10.2028 -
Geovany Quenda Watford Actif 157 / 161 40% 3 15.10.2028 -
Isaque Obolon Actif 127 / 139 40% 1 15.10.2028 -
Luka Andrade Montevideo City Torque Actif 111 / 104 40% 3 14.10.2028 -
Radek Vítek Middlesbrough Actif 152 / 151 40% 2 14.10.2028 -
Vladislav Torop CSKA Moscow Actif 143 / 141 40% 2 13.10.2028 -
Alain Zadi Sarpsborg 08 Actif 102 / 108 40% 3 12.10.2028 -
Juan Pablo Insúa Barracas Central Actif 117 / 112 40% 3 11.10.2028 -
Celías Ingenthron Platense Actif 123 / 132 40% 2 10.10.2028 -
Lucca São Paulo Actif 120 / 124 40% 2 10.10.2028 -
Pablo Lago Juventud Actif 104 / 105 40% 2 10.10.2028 -
Honest Ahanor Atalanta Actif 142 / 146 40% 2 09.10.2028 -
Yeferson Cordova Llaneros Actif 96 / 102 40% 1 08.10.2028 -
Markus Wæhler Lillestrom Actif 113 / 112 40% 3 04.10.2028 -
Sean Steur Rotherham United Actif 134 / 135 40% 1 04.10.2028 -
Luis Otávio Orlando City Actif 122 / 124 40% 2 03.10.2028 -
Harrison Armstrong Ipswich Town Actif 136 / 142 40% 2 03.10.2028 -
Wisdom Mike Club Brugge Actif 125 / 127 40% 3 03.10.2028 -
Rémi Himbert AC Ajaccio Actif 127 / 131 40% 1 02.10.2028 -
Alexey Ploschadny Noah Actif 117 / 116 40% 1 02.10.2028 -
Andrija Bulatović Chamois Niortais Actif 132 / 138 40% 2 30.09.2028 -
Ibrahim Mbaye Queens Park Rangers Actif 143 / 142 40% 2 30.09.2028 -
Henrique Carmo Sochi Actif 127 / 137 40% 1 28.09.2028 -
Siyabonga Mabena Bidvest Wits Actif 120 / 132 40% 4 26.09.2028 -
Babis Kostoulas Oxford United Actif 150 / 150 40% 2 25.09.2028 -
Ryan Kavuma-McQueen Accrington Stanley Actif 119 / 134 40% 1 25.09.2028 -
Ruben Ramos LA Galaxy Actif 104 / 115 40% 3 20.09.2028 -
Théodore Lefèvre Tours Actif 152 / 152 52% 1 / 1m 20.09.2028 -
Mário Sauer Stade Lavallois Actif 146 / 149 42% 1 / 1m 20.09.2028 -
Ramazan Bağdat Kairat Actif 112 / 108 40% 1 18.09.2028 -
Nicolás Barros Schelotto Gimnasia La Plata Actif 123 / 129 40% 3 15.09.2028 -
Daouda Togola Stade Malien Actif 106 / 112 40% 1 13.09.2028 -
Mateus Mané Burnley Actif 147 / 157 40% 2 10.09.2028 -
Kauã Moraes Flamengo Actif 129 / 126 40% 3 09.09.2028 -
Myles Lewis-Skelly Arsenal Actif 158 / 159 40% 1 07.09.2028 -
Ahmad Ngouyamsa US Creteil Perdu 117 / 124 79% 1 28.08.2028 -
Alejo Veliz Bahia Perdu 142 / 134 40% 1 28.08.2028 -
Talles Magno New York City Perdu 145 / 139 40% 1 28.08.2028 -
Liel Abada Inter Miami CF Actif 133 / 137 40% 1 28.08.2028 -
Ilies Belmokhtar Monaco Perdu 117 / 133 79% 1 21.08.2028 -
Adama Soumaoro Paris FC Perdu 120 / 123 79% 1 07.08.2028 -
Alimami Gory Paris FC Rapport prêt 122 / 125 79% 1 17.07.2028 -
Andrea Sergio Mazza Giana Erminio Actif 114 / 113 40% 1 17.07.2028 -
George Evans Exeter City Actif 119 / 115 40% 1 17.07.2028 -
Miguel Figueiredo Benfica Actif 119 / 128 40% 1 13.06.2028 -
Bernardo Lima Porto Actif 107 / 115 40% 1 13.06.2028 -
Mohamed-Ali Cho Hull City Actif 145 / 141 40% 5 08.06.2028 -
Patson Daka Leicester City Actif 132 / 131 40% 2 08.06.2028 -
Riquelme Thompson-Jones Accrington Stanley Actif 113 / 119 40% 1 02.06.2028 -
Konta Ismaily Actif 96 / 106 40% 1 02.06.2028 -
Robert Cook Accrington Stanley Actif 113 / 120 40% 2 01.06.2028 -
Frankarlos Benítez Caracas Actif 107 / 109 40% 1 01.06.2028 -
Adam Hrdina Zbrojovka Brno Actif 118 / 119 40% 1 31.05.2028 -
Gabriele Baldi Guidonia Montecelio Actif 110 / 114 40% 1 31.05.2028 -
Thiago Brentford Actif 156 / 150 40% 7 28.05.2028 -
William Osula Wrexham Actif 134 / 139 40% 3 28.05.2028 -
Róbert Boženík Stoke City Actif 139 / 127 40% 2 27.05.2028 -
Luca Koleosho Paris FC Actif 140 / 139 40% 3 25.05.2028 -
Brandon Thomas-Asante Blackpool Actif 127 / 126 40% 6 25.05.2028 -
João Pedro Chelsea Actif 161 / 157 40% 4 22.05.2028 -
Fábio Carvalho Brentford Actif 147 / 141 40% 2 19.05.2028 -
Sam Greenwood Bristol City Actif 129 / 131 40% 1 19.05.2028 -
Jayden Danns Bradford City Actif 135 / 142 40% 5 18.05.2028 -
Tyrese Campbell Sheffield United Actif 134 / 128 40% 3 18.05.2028 -
Patrick Agyemang Derby County Actif 134 / 130 40% 1 17.05.2028 -
Yousef Salech Cardiff City Actif 130 / 129 40% 2 14.05.2028 -
Aune Heggebø West Bromwich Albion Actif 128 / 129 40% 1 14.05.2028 -
Hamza Igamane LOSC Lille Actif 152 / 152 40% 7 12.05.2028 -
Rodrigo Muniz Fulham Actif 140 / 147 40% 3 08.05.2028 -
Tammy Abraham Aston Villa Actif 151 / 146 40% 4 08.05.2028 -
Taiwo Awoniyi Middlesbrough Actif 144 / 139 40% 2 07.05.2028 -
Morgan Rogers Chelsea Actif 168 / 159 40% 1 07.05.2028 -
Nicolas Jackson Aston Villa Actif 158 / 155 40% 2 06.05.2028 -
Iliman N'Diaye Everton Actif 166 / 164 40% 3 04.05.2028 -
Georginio Rutter Brighton Actif 158 / 155 40% 3 03.05.2028 -
Jay Stansfield Birmingham Actif 129 / 130 40% 1 24.04.2028 -
Ismaïla Sarr Crystal Palace Actif 159 / 152 40% 3 22.04.2028 -
Esteban Lepaul Stade Rennais Actif 146 / 136 40% 2 21.04.2028 -
Casper Tengstedt Toulouse FC Actif 134 / 126 40% 1 21.04.2028 -
Musa Barrow ES Setif Actif 142 / 144 40% 3 19.04.2028 -
Richard Koné Queens Park Rangers Actif 133 / 133 40% 1 19.04.2028 -
Zito Luvumbo Cagliari Actif 137 / 131 40% 1 17.04.2028 -
Aiyegun Tosin FC Lorient Actif 128 / 128 40% 1 13.04.2028 -
Igor Paixão Olympique de Marseille Actif 156 / 148 40% 1 10.04.2028 -
Eddie Nketiah Crystal Palace Actif 149 / 142 40% 1 05.04.2028 -
Callum O'Hare Sheffield United Actif 141 / 130 40% 1 03.04.2028 -
Evann Guessand Aston Villa Actif 149 / 149 40% 1 03.04.2028 -
Sebastiano Esposito Cagliari Actif 144 / 144 40% 1 03.04.2028 -
Facundo Colidio Vasco da Gama Actif 129 / 126 40% 2 27.03.2028 -
Christian Kouamé Atlético Mineiro Actif 139 / 136 40% 1 17.03.2028 -
Ben Chayeel Hamada Dijon Actif 106 / 109 42% 1 / 1m 17.11.2027 -